ADDS METAR Data INFO
IDs: Format: Raw Decoded Include TAF

Data at: 1941 UTC 17 Feb 2018

KTAN 171852Z AUTO 16008KT 130V190 10SM CLR 04/M11 A3033 RMK AO2 SLP269 T00441106
KTAN 171752Z AUTO 14006KT 10SM CLR 04/M12 A3035 RMK AO2 SLP277 T00391122 10039 21022 58019
KTAN 171652Z AUTO 13006KT 10SM CLR 03/M13 A3039 RMK AO2 SLP289 T00331133
KTAN 171552Z AUTO 00000KT 10SM CLR 02/M13 A3040 RMK AO2 SLP295 T00171128
KTAN 171452Z AUTO 03003KT 10SM CLR 01/M12 A3040 RMK AO2 SLP296 T00111122 51013
KTAN 171352Z AUTO 35007KT 10SM CLR 00/M11 A3040 RMK AO2 SLP296 T00001111
KTAN 171252Z AUTO 34004KT 10SM CLR M01/M11 A3040 RMK AO2 SLP294 T10111106
KTAN 171152Z AUTO 33005KT 10SM CLR M02/M11 A3037 RMK AO2 SLP282 70001 T10221106 10017 21033 51037
KTAN 171052Z AUTO 01003KT 10SM CLR M02/M10 A3033 RMK AO2 SLP271 T10221100
KTAN 170952Z AUTO 33003KT 10SM CLR M02/M09 A3030 RMK AO2 SLP261 T10221094
KTAN 170852Z AUTO 34004KT 10SM CLR M01/M09 A3026 RMK AO2 PRESRR SLP246 T10111094 53047
KTAN 170752Z AUTO 00000KT 10SM CLR M01/M08 A3021 RMK AO2 SLP230 T10061078
KTAN 170652Z AUTO 32006KT 10SM CLR 01/M07 A3016 RMK AO2 SLP213 T00061072
KTAN 170552Z AUTO 33006KT 10SM CLR 02/M08 A3012 RMK AO2 SLP199 T00171083 10083 20017 51060
KTAN 170452Z AUTO 32013G19KT 10SM FEW048 03/M07 A3007 RMK AO2 SLP182 T00281072 401280028
KTAN 170352Z AUTO 33007G17KT 10SM BKN045 04/M06 A3001 RMK AO2 SLP162 T00391056
KTAN 170252Z AUTO 33014G21KT 10SM CLR 06/M05 A2994 RMK AO2 SLP138 T00561050 53060
KTAN 170152Z AUTO 32013G22KT 10SM BKN045 BKN060 07/M02 A2988 RMK AO2 SLP117 T00671017
KTAN 170052Z AUTO 31010G18KT 280V350 10SM CLR 07/M02 A2982 RMK AO2 PK WND 31026/2353 SLP097 T00721017
KTAN 162352Z AUTO 29013G21KT 10SM OVC110 08/M01 A2976 RMK AO2 SLP078 60000 T00831006 10128 20083 53054
KTAN 162252Z AUTO 29010G15KT 10SM SCT075 OVC100 09/00 A2969 RMK AO2 SLP054 T00940000
KTAN 162152Z AUTO 29008G16KT 10SM FEW042 BKN050 OVC080 11/02 A2966 RMK AO2 RAB20E37 SLP044 P0000 T01060017
KTAN 162052Z AUTO 30011G18KT 10SM SCT060 OVC100 12/04 A2960 RMK AO2 SLP025 T01170039 53020
KTAN 161952Z AUTO 31007KT 10SM OVC037 12/06 A2957 RMK AO2 SLP014 T01220061
KTAN 161852Z AUTO 29006KT 10SM SCT035 BKN045 OVC070 12/07 A2955 RMK AO2 SLP008 T01220067
KTAN 161752Z AUTO 26006KT 10SM BKN055 OVC080 12/10 A2954 RMK AO2 SLP005 60001 T01170100 10117 20083 53008
KTAN 161652Z AUTO 24004KT 8SM OVC046 11/10 A2953 RMK AO2 SLP001 T01110100
KTAN 161552Z AUTO 24004KT 7SM CLR 11/10 A2953 RMK AO2 SLP998 T01110100
KTAN 161459Z AUTO 16004KT 5SM BR FEW002 SCT041 BKN100 10/10 A2951 RMK AO2 PRESFR T01000100
KTAN 161452Z AUTO 14003KT 5SM BR FEW041 FEW075 SCT110 10/09 A2952 RMK AO2 PRESFR SLP996 60001 T01000094 58014
KTAN 161352Z AUTO 00000KT 5SM BR OVC050 09/09 A2956 RMK AO2 RAE1256 SLP011 P0000 T00890089
KTAN 161338Z AUTO 00000KT 3SM BR OVC049 09/08 A2957 RMK AO2 RAE1256 P0000 T00890083
KTAN 161310Z AUTO 00000KT 2 1/2SM BR OVC048 08/08 A2957 RMK AO2 RAE1256 P0000 T00830078
KTAN 161300Z AUTO 00000KT 3SM BR OVC048 08/08 A2957 RMK AO2 RAE1256 PRESRR P0000 T00830078
KTAN 161252Z AUTO 00000KT 2 1/2SM -RA BR OVC047 08/08 A2957 RMK AO2 SLP011 P0001 T00830083
KTAN 161249Z AUTO 00000KT 2 1/2SM -RA BR OVC047 08/08 A2956 RMK AO2 P0001
KTAN 161226Z AUTO 00000KT 3SM -RA BR SCT003 OVC046 08/08 A2956 RMK AO2 P0000 T00830078
KTAN 161152Z AUTO 33003KT 4SM -RA BR OVC003 08/08 A2955 RMK AO2 SLP007 P0003 60025 70025 T00830078 10083 20078 56006
KTAN 161130Z AUTO 33003KT 3SM -RA BR BKN003 BKN040 OVC050 08/08 A2955 RMK AO2 P0002 T00830078
KTAN 161108Z AUTO 00000KT 3SM -RA BR FEW003 BKN030 OVC055 08/08 A2954 RMK AO2 P0002 T00830083
KTAN 161102Z AUTO 00000KT 2SM -RA BR FEW003 BKN021 OVC049 08/08 A2955 RMK AO2 P0001 T00830083
KTAN 161052Z AUTO 16003KT 1 1/2SM -RA BR FEW003 BKN012 OVC039 08/08 A2956 RMK AO2 SLP009 P0009 T00830078
KTAN 161050Z AUTO 00000KT 1 1/2SM -RA BR FEW003 BKN010 OVC039 08/07 A2956 RMK AO2 P0009
KTAN 161037Z AUTO 00000KT 1 1/2SM RA BR BKN003 OVC015 08/08 A2956 RMK AO2 P0007 T00830083
KTAN 161022Z AUTO 00000KT 2SM -RA BR BKN003 BKN010 OVC029 08/08 A2956 RMK AO2 P0005 T00830083
KTAN 160952Z AUTO 19004KT 2SM RA BR FEW004 BKN010 OVC022 08/08 A2957 RMK AO2 RAB11 SLP013 P0008 T00830078
KTAN 160939Z AUTO VRB04KT 2 1/2SM RA BR FEW005 SCT014 OVC032 08/08 A2956 RMK AO2 RAB11 P0004 T00830078
KTAN 160934Z AUTO 17004KT 3SM -RA BR FEW005 BKN022 OVC035 08/08 A2956 RMK AO2 RAB11 P0002 T00830078
KTAN 160924Z AUTO 00000KT 2 1/2SM -RA BR FEW003 BKN035 OVC047 08/08 A2956 RMK AO2 RAB11 P0001 T00830078
KTAN 160911Z AUTO 00000KT 4SM -RA BR FEW003 SCT039 OVC048 08/08 A2955 RMK AO2 RAB11 P0000 T00830078
KTAN 160852Z AUTO 14003KT 4SM BR BKN050 OVC065 08/08 A2954 RMK AO2 RAE50 SLP003 P0005 60005 T00780078 56029
KTAN 160822Z AUTO 12003KT 2SM -RA BR SCT060 OVC070 08/07 A2955 RMK AO2 P0004 T00780072
KTAN 160804Z AUTO 00000KT 1 1/4SM RA BR BKN060 BKN075 OVC090 08/07 A2955 RMK AO2 P0002 T00780072
KTAN 160752Z AUTO 00000KT 2 1/2SM -RA BR SCT050 OVC090 08/08 A2956 RMK AO2 RAE01B33 SLP010 P0000 T00780078